createdAt,value
2019-01-02T00:00:19.963Z,1022.95
2019-01-02T00:01:19.925Z,1022.99
2019-01-02T00:02:19.890Z,1023.02
2019-01-02T00:03:19.861Z,1023.00
2019-01-02T00:04:19.824Z,1023.04
2019-01-02T00:05:19.776Z,1023.00
2019-01-02T00:06:19.739Z,1023.03
2019-01-02T00:07:19.706Z,1022.95
2019-01-02T00:08:19.666Z,1023.01
2019-01-02T00:09:19.638Z,1023.04
2019-01-02T00:10:19.610Z,1023.07
2019-01-02T00:11:19.560Z,1023.05
2019-01-02T00:12:19.541Z,1023.02
2019-01-02T00:13:19.481Z,1023.04
2019-01-02T00:14:19.446Z,1023.02
2019-01-02T00:15:19.402Z,1023.10
2019-01-02T00:16:19.369Z,1023.14
2019-01-02T00:17:19.329Z,1023.14
2019-01-02T00:18:19.294Z,1023.14
2019-01-02T00:19:19.273Z,1023.18
2019-01-02T00:20:19.207Z,1023.16
2019-01-02T00:21:19.177Z,1023.21
2019-01-02T00:22:19.139Z,1023.12
2019-01-02T00:23:19.104Z,1023.15
2019-01-02T00:24:19.064Z,1023.16
2019-01-02T00:25:19.026Z,1023.19
2019-01-02T00:26:18.995Z,1023.13
2019-01-02T00:27:18.959Z,1023.14
2019-01-02T00:28:18.918Z,1023.14
2019-01-02T00:29:18.872Z,1023.05
2019-01-02T00:30:18.839Z,1023.01
2019-01-02T00:31:18.797Z,1023.02
2019-01-02T00:32:18.766Z,1023.16
2019-01-02T00:33:18.725Z,1023.16
2019-01-02T00:34:18.691Z,1023.22
2019-01-02T00:35:18.651Z,1023.20
2019-01-02T00:36:18.616Z,1023.17
2019-01-02T00:37:18.572Z,1023.28
2019-01-02T00:38:18.532Z,1023.18
2019-01-02T00:39:18.497Z,1023.18
2019-01-02T00:40:18.463Z,1023.17
2019-01-02T00:41:18.428Z,1023.15
2019-01-02T00:42:18.390Z,1023.17
2019-01-02T00:43:18.356Z,1023.15
2019-01-02T00:44:18.321Z,1023.19
2019-01-02T00:45:22.299Z,1023.22
2019-01-02T00:46:18.232Z,1023.26
2019-01-02T00:47:18.202Z,1023.28
2019-01-02T00:48:18.165Z,1023.25
2019-01-02T00:49:18.125Z,1023.26
2019-01-02T00:50:18.097Z,1023.22
2019-01-02T00:51:18.049Z,1023.17
2019-01-02T00:52:18.007Z,1023.20
2019-01-02T00:53:17.978Z,1023.22
2019-01-02T00:54:17.936Z,1023.23
2019-01-02T00:55:17.898Z,1023.21
2019-01-02T00:56:17.863Z,1023.23
2019-01-02T00:57:17.872Z,1023.26
2019-01-02T00:58:17.790Z,1023.31
2019-01-02T00:59:17.744Z,1023.29
2019-01-02T01:00:17.716Z,1023.28
2019-01-02T01:01:17.680Z,1023.27
2019-01-02T01:02:17.622Z,1023.30
2019-01-02T01:03:17.597Z,1023.31
2019-01-02T01:04:17.557Z,1023.28
2019-01-02T01:05:17.526Z,1023.25
2019-01-02T01:06:17.488Z,1023.33
2019-01-02T01:07:17.444Z,1023.30
2019-01-02T01:08:17.410Z,1023.37
2019-01-02T01:09:17.387Z,1023.32
2019-01-02T01:10:17.332Z,1023.45
2019-01-02T01:11:17.301Z,1023.42
2019-01-02T01:12:17.258Z,1023.41
2019-01-02T01:13:17.236Z,1023.47
2019-01-02T01:14:17.189Z,1023.49
2019-01-02T01:15:17.141Z,1023.50
2019-01-02T01:16:17.112Z,1023.58
2019-01-02T01:17:17.063Z,1023.56
2019-01-02T01:18:17.033Z,1023.62
2019-01-02T01:19:16.989Z,1023.63
2019-01-02T01:20:16.959Z,1023.62
2019-01-02T01:21:16.917Z,1023.67
2019-01-02T01:22:16.877Z,1023.62
2019-01-02T01:23:16.848Z,1023.62
2019-01-02T01:24:16.807Z,1023.67
2019-01-02T01:25:16.768Z,1023.66
2019-01-02T01:26:16.734Z,1023.70
2019-01-02T01:27:16.699Z,1023.65
2019-01-02T01:28:16.674Z,1023.67
2019-01-02T01:29:16.617Z,1023.60
2019-01-02T01:30:16.579Z,1023.60
2019-01-02T01:31:16.538Z,1023.75
2019-01-02T01:32:16.513Z,1023.62
2019-01-02T01:33:16.466Z,1023.64
2019-01-02T01:34:16.469Z,1023.69
2019-01-02T01:35:16.387Z,1023.62
2019-01-02T01:36:16.358Z,1023.68
2019-01-02T01:37:16.322Z,1023.70
2019-01-02T01:38:16.276Z,1023.69
2019-01-02T01:39:16.245Z,1023.72
2019-01-02T01:40:16.198Z,1023.69
2019-01-02T01:41:16.173Z,1023.75
2019-01-02T01:42:16.143Z,1023.69
2019-01-02T01:43:16.090Z,1023.76
2019-01-02T01:44:16.053Z,1023.72
2019-01-02T01:45:16.010Z,1023.75
2019-01-02T01:46:15.973Z,1023.81
2019-01-02T01:47:15.938Z,1023.86
2019-01-02T01:48:15.903Z,1023.90
2019-01-02T01:49:15.868Z,1023.88
2019-01-02T01:50:15.828Z,1023.95
2019-01-02T01:51:15.798Z,1023.98
2019-01-02T01:52:15.749Z,1024.02
2019-01-02T01:53:15.704Z,1023.95
2019-01-02T01:54:15.685Z,1023.99
2019-01-02T01:55:15.636Z,1023.96
2019-01-02T01:56:15.613Z,1023.97
2019-01-02T01:57:15.577Z,1024.02
2019-01-02T01:58:15.528Z,1024.02
2019-01-02T01:59:15.494Z,1024.11
2019-01-02T02:00:15.444Z,1024.03
2019-01-02T02:01:15.414Z,1024.05
2019-01-02T02:02:15.378Z,1024.00
2019-01-02T02:03:15.342Z,1024.04
2019-01-02T02:04:15.304Z,1023.97
2019-01-02T02:05:15.261Z,1024.01
2019-01-02T02:06:15.231Z,1023.99
2019-01-02T02:07:15.206Z,1023.97
2019-01-02T02:08:15.153Z,1023.98
2019-01-02T02:09:15.111Z,1023.89
2019-01-02T02:10:15.076Z,1023.98
2019-01-02T02:11:15.031Z,1023.96
2019-01-02T02:12:15.002Z,1024.01
2019-01-02T02:13:14.965Z,1023.98
2019-01-02T02:14:14.977Z,1024.02
2019-01-02T02:15:14.887Z,1023.93
2019-01-02T02:16:14.851Z,1023.96
2019-01-02T02:17:14.809Z,1024.00
2019-01-02T02:18:14.775Z,1023.95
2019-01-02T02:19:14.732Z,1023.96
2019-01-02T02:20:14.704Z,1024.01
2019-01-02T02:21:14.674Z,1024.11
2019-01-02T02:22:14.621Z,1024.07
2019-01-02T02:23:14.591Z,1024.08
2019-01-02T02:24:14.549Z,1024.09
2019-01-02T02:25:14.502Z,1024.03
2019-01-02T02:26:14.470Z,1024.00
2019-01-02T02:27:14.432Z,1024.01
2019-01-02T02:28:14.395Z,1024.00
2019-01-02T02:29:14.362Z,1024.00
2019-01-02T02:30:14.336Z,1024.04
2019-01-02T02:31:14.282Z,1024.01
2019-01-02T02:32:14.258Z,1024.04
2019-01-02T02:33:14.210Z,1023.99
2019-01-02T02:34:14.166Z,1024.02
2019-01-02T02:35:14.132Z,1024.05
2019-01-02T02:36:14.098Z,1024.04
2019-01-02T02:37:14.050Z,1024.03
2019-01-02T02:38:14.017Z,1024.04
2019-01-02T02:39:13.984Z,1023.96
2019-01-02T02:40:13.942Z,1024.00
2019-01-02T02:41:13.905Z,1023.98
2019-01-02T02:42:13.866Z,1023.97
2019-01-02T02:43:13.826Z,1023.95
2019-01-02T02:44:13.804Z,1023.95
2019-01-02T02:45:13.753Z,1023.87
2019-01-02T02:46:13.718Z,1023.90
2019-01-02T02:47:13.683Z,1023.98
2019-01-02T02:48:13.657Z,1024.00
2019-01-02T02:49:13.608Z,1024.01
2019-01-02T02:50:13.570Z,1024.04
2019-01-02T02:51:13.536Z,1024.03
2019-01-02T02:52:13.496Z,1024.05
2019-01-02T02:53:13.449Z,1024.02
2019-01-02T02:54:13.422Z,1024.05
2019-01-02T02:55:13.381Z,1024.00
2019-01-02T02:56:13.346Z,1024.03
2019-01-02T02:57:13.303Z,1024.04
2019-01-02T02:58:13.266Z,1024.08
2019-01-02T02:59:13.231Z,1024.08
2019-01-02T03:00:13.194Z,1024.10
2019-01-02T03:01:13.175Z,1024.10
2019-01-02T03:02:13.113Z,1024.10
2019-01-02T03:03:13.078Z,1024.15
2019-01-02T03:04:13.038Z,1024.13
2019-01-02T03:05:13.004Z,1024.07
2019-01-02T03:06:12.966Z,1024.12
2019-01-02T03:07:12.932Z,1024.11
2019-01-02T03:08:12.888Z,1024.13
2019-01-02T03:09:12.856Z,1024.03
2019-01-02T03:10:12.802Z,1024.10
2019-01-02T03:11:12.772Z,1024.06
2019-01-02T03:12:12.728Z,1024.05
2019-01-02T03:13:12.702Z,1024.01
2019-01-02T03:14:12.668Z,1024.08
2019-01-02T03:15:12.623Z,1024.01
2019-01-02T03:16:12.587Z,1024.03
2019-01-02T03:17:12.564Z,1023.96
2019-01-02T03:18:12.521Z,1023.97
2019-01-02T03:19:12.478Z,1023.93
2019-01-02T03:20:12.437Z,1023.88
2019-01-02T03:21:12.403Z,1023.88
2019-01-02T03:22:12.358Z,1023.87
2019-01-02T03:23:12.337Z,1023.84
2019-01-02T03:24:12.329Z,1023.85
2019-01-02T03:25:12.250Z,1023.88
2019-01-02T03:26:12.208Z,1023.87
2019-01-02T03:27:12.173Z,1023.97
2019-01-02T03:28:12.147Z,1024.06
2019-01-02T03:29:12.108Z,1023.99
2019-01-02T03:30:12.063Z,1023.99
2019-01-02T03:31:12.033Z,1024.00
2019-01-02T03:32:11.993Z,1023.95
2019-01-02T03:33:11.951Z,1024.04
2019-01-02T03:34:11.918Z,1023.99
2019-01-02T03:35:11.874Z,1024.08
2019-01-02T03:36:11.830Z,1024.04
2019-01-02T03:37:11.799Z,1024.03
2019-01-02T03:38:11.760Z,1023.99
2019-01-02T03:39:11.719Z,1023.97
2019-01-02T03:40:11.689Z,1024.02
2019-01-02T03:41:11.651Z,1024.01
2019-01-02T03:42:11.615Z,1024.06
2019-01-02T03:43:11.577Z,1024.04
2019-01-02T03:44:11.536Z,1024.03
2019-01-02T03:45:11.493Z,1024.01
2019-01-02T03:46:11.453Z,1024.10
2019-01-02T03:47:11.423Z,1023.95
2019-01-02T03:48:11.389Z,1024.05
2019-01-02T03:49:11.341Z,1024.04
2019-01-02T03:50:11.311Z,1024.06
2019-01-02T03:51:11.266Z,1023.99
2019-01-02T03:52:11.242Z,1023.97
2019-01-02T03:53:11.195Z,1024.04
2019-01-02T03:54:11.158Z,1024.03
2019-01-02T03:55:11.124Z,1023.98
2019-01-02T03:56:11.085Z,1023.98
2019-01-02T03:57:11.044Z,1024.02
2019-01-02T03:58:11.004Z,1024.10
2019-01-02T03:59:10.974Z,1024.09
2019-01-02T04:00:10.934Z,1024.04
2019-01-02T04:01:10.895Z,1024.18
2019-01-02T04:02:10.852Z,1024.12
2019-01-02T04:03:10.821Z,1024.11
2019-01-02T04:04:10.784Z,1024.13
2019-01-02T04:05:10.755Z,1024.16
2019-01-02T04:06:10.712Z,1024.08
2019-01-02T04:07:10.670Z,1024.02
2019-01-02T04:08:10.625Z,1024.07
2019-01-02T04:09:10.586Z,1024.03
2019-01-02T04:10:10.551Z,1024.06
2019-01-02T04:11:10.519Z,1024.02
2019-01-02T04:12:10.485Z,1024.04
2019-01-02T04:13:10.447Z,1024.02
2019-01-02T04:14:10.401Z,1024.08
2019-01-02T04:15:10.361Z,1024.07
2019-01-02T04:16:10.330Z,1023.99
2019-01-02T04:17:10.281Z,1024.04
2019-01-02T04:18:10.256Z,1024.04
2019-01-02T04:19:10.221Z,1023.95
2019-01-02T04:20:10.176Z,1024.01
2019-01-02T04:21:10.140Z,1023.94
2019-01-02T04:22:10.101Z,1023.99
2019-01-02T04:23:10.062Z,1024.02
2019-01-02T04:24:10.028Z,1023.91
2019-01-02T04:25:09.986Z,1023.92
2019-01-02T04:26:09.958Z,1024.03
2019-01-02T04:27:09.920Z,1024.07
2019-01-02T04:28:09.875Z,1024.06
2019-01-02T04:29:09.833Z,1024.13
2019-01-02T04:30:09.801Z,1024.11
2019-01-02T04:31:09.767Z,1024.11
2019-01-02T04:32:10.399Z,1024.04
2019-01-02T04:33:09.687Z,1024.06
2019-01-02T04:34:09.656Z,1024.02
2019-01-02T04:35:09.618Z,1024.00
2019-01-02T04:36:09.583Z,1024.00
2019-01-02T04:37:09.538Z,1024.00
2019-01-02T04:38:09.506Z,1023.95
2019-01-02T04:39:09.466Z,1024.00
2019-01-02T04:40:10.430Z,1023.95
2019-01-02T04:41:09.402Z,1024.02
2019-01-02T04:42:09.362Z,1024.04
2019-01-02T04:43:09.315Z,1024.06
2019-01-02T04:44:09.278Z,1024.13
2019-01-02T04:45:09.238Z,1024.03
2019-01-02T04:46:09.201Z,1024.01
2019-01-02T04:47:09.162Z,1024.09
2019-01-02T04:48:09.126Z,1023.97
2019-01-02T04:49:09.083Z,1024.03
2019-01-02T04:50:09.049Z,1024.07
2019-01-02T04:51:09.010Z,1024.03
2019-01-02T04:52:08.974Z,1024.00
2019-01-02T04:53:08.934Z,1024.02
2019-01-02T04:54:08.899Z,1024.06
2019-01-02T04:55:08.864Z,1024.10
2019-01-02T04:56:08.837Z,1024.09
2019-01-02T04:57:08.782Z,1024.17
2019-01-02T04:58:08.754Z,1024.18
2019-01-02T04:59:08.704Z,1024.16
2019-01-02T05:00:08.673Z,1024.19
2019-01-02T05:01:08.635Z,1024.12
2019-01-02T05:02:08.590Z,1024.09
2019-01-02T05:03:08.559Z,1024.14
2019-01-02T05:04:08.533Z,1024.27
2019-01-02T05:05:08.484Z,1024.14
2019-01-02T05:06:08.445Z,1024.13
2019-01-02T05:07:08.411Z,1024.10
2019-01-02T05:08:08.370Z,1024.08
2019-01-02T05:09:08.335Z,1024.16
2019-01-02T05:10:08.301Z,1024.22
2019-01-02T05:11:08.251Z,1024.11
2019-01-02T05:12:08.218Z,1024.14
2019-01-02T05:13:08.180Z,1024.23
2019-01-02T05:14:08.145Z,1024.25
2019-01-02T05:15:08.100Z,1024.24
2019-01-02T05:16:08.074Z,1024.26
2019-01-02T05:17:08.025Z,1024.24
2019-01-02T05:18:07.988Z,1024.24
2019-01-02T05:19:07.964Z,1024.13
2019-01-02T05:20:07.930Z,1024.15
2019-01-02T05:21:07.879Z,1024.22
2019-01-02T05:22:07.845Z,1024.23
2019-01-02T05:23:07.810Z,1024.17
2019-01-02T05:24:07.763Z,1024.22
2019-01-02T05:25:07.729Z,1024.15
2019-01-02T05:26:07.688Z,1024.19
2019-01-02T05:27:07.653Z,1024.14
2019-01-02T05:28:07.615Z,1024.21
2019-01-02T05:29:07.575Z,1024.22
2019-01-02T05:30:07.535Z,1024.17
2019-01-02T05:31:07.505Z,1024.27
2019-01-02T05:32:07.466Z,1024.31
2019-01-02T05:33:07.416Z,1024.34
2019-01-02T05:34:07.387Z,1024.28
2019-01-02T05:35:07.356Z,1024.31
2019-01-02T05:36:07.320Z,1024.31
2019-01-02T05:37:07.280Z,1024.40
2019-01-02T05:38:07.236Z,1024.47
2019-01-02T05:39:07.203Z,1024.44
2019-01-02T05:40:07.170Z,1024.44
2019-01-02T05:41:07.124Z,1024.46
2019-01-02T05:42:07.090Z,1024.46
2019-01-02T05:43:07.050Z,1024.50
2019-01-02T05:44:07.006Z,1024.50
2019-01-02T05:45:06.971Z,1024.54
2019-01-02T05:46:06.937Z,1024.49
2019-01-02T05:47:06.914Z,1024.52
2019-01-02T05:48:06.865Z,1024.45
2019-01-02T05:49:06.822Z,1024.43
2019-01-02T05:50:06.784Z,1024.57
2019-01-02T05:51:06.745Z,1024.51
2019-01-02T05:52:06.722Z,1024.60
2019-01-02T05:53:06.677Z,1024.48
2019-01-02T05:54:06.635Z,1024.48
2019-01-02T05:55:06.597Z,1024.47
2019-01-02T05:56:06.580Z,1024.56
2019-01-02T05:57:06.516Z,1024.60
2019-01-02T05:58:06.483Z,1024.65
2019-01-02T05:59:06.445Z,1024.60
2019-01-02T06:00:06.406Z,1024.64
2019-01-02T06:01:06.376Z,1024.68
2019-01-02T06:02:06.336Z,1024.63
2019-01-02T06:03:06.301Z,1024.69
2019-01-02T06:04:06.267Z,1024.68
2019-01-02T06:05:06.223Z,1024.69
2019-01-02T06:06:06.187Z,1024.72
2019-01-02T06:07:06.143Z,1024.69
2019-01-02T06:08:06.111Z,1024.65
2019-01-02T06:09:06.067Z,1024.73
2019-01-02T06:10:06.028Z,1024.70
2019-01-02T06:11:05.988Z,1024.77
2019-01-02T06:12:05.959Z,1024.71
2019-01-02T06:13:05.913Z,1024.66
2019-01-02T06:14:05.882Z,1024.69
2019-01-02T06:15:05.872Z,1024.76
2019-01-02T06:16:05.818Z,1024.77
2019-01-02T06:17:05.768Z,1024.75
2019-01-02T06:18:05.737Z,1024.78
2019-01-02T06:19:05.692Z,1024.78
2019-01-02T06:20:05.658Z,1024.84
2019-01-02T06:21:05.622Z,1024.82
2019-01-02T06:22:05.576Z,1024.86
2019-01-02T06:23:05.535Z,1024.76
2019-01-02T06:24:05.506Z,1024.82
2019-01-02T06:25:05.483Z,1024.79
2019-01-02T06:26:05.422Z,1024.82
2019-01-02T06:27:05.392Z,1024.89
2019-01-02T06:28:05.359Z,1024.82
2019-01-02T06:29:05.316Z,1024.82
2019-01-02T06:30:05.277Z,1024.84
2019-01-02T06:31:05.244Z,1024.81
2019-01-02T06:32:05.205Z,1024.82
2019-01-02T06:33:05.165Z,1024.83
2019-01-02T06:34:05.125Z,1024.91
2019-01-02T06:35:05.086Z,1024.77
2019-01-02T06:36:05.045Z,1024.76
2019-01-02T06:37:05.012Z,1024.74
2019-01-02T06:38:04.975Z,1024.72
2019-01-02T06:39:04.928Z,1024.79
2019-01-02T06:40:04.899Z,1024.68
2019-01-02T06:41:04.856Z,1024.74
2019-01-02T06:42:04.815Z,1024.71
2019-01-02T06:43:04.785Z,1024.75
2019-01-02T06:44:04.746Z,1024.78
2019-01-02T06:45:04.705Z,1024.76
2019-01-02T06:46:04.670Z,1024.74
2019-01-02T06:47:04.626Z,1024.82
2019-01-02T06:48:04.605Z,1024.77
2019-01-02T06:49:04.553Z,1024.80
2019-01-02T06:50:04.515Z,1024.80
2019-01-02T06:51:04.473Z,1024.83
2019-01-02T06:52:04.439Z,1024.81
2019-01-02T06:53:04.404Z,1024.82
2019-01-02T06:54:04.359Z,1024.81
2019-01-02T06:55:04.330Z,1024.84
2019-01-02T06:56:04.291Z,1024.81
2019-01-02T06:57:04.246Z,1024.87
2019-01-02T06:58:04.216Z,1024.89
2019-01-02T06:59:04.177Z,1024.89
2019-01-02T07:00:04.141Z,1024.95
2019-01-02T07:01:04.104Z,1025.02
2019-01-02T07:02:04.065Z,1024.98
2019-01-02T07:03:04.023Z,1024.98
2019-01-02T07:04:03.983Z,1025.00
2019-01-02T07:05:03.947Z,1025.04
2019-01-02T07:06:03.911Z,1025.02
2019-01-02T07:07:03.873Z,1024.99
2019-01-02T07:08:03.832Z,1025.02
2019-01-02T07:09:03.801Z,1025.00
2019-01-02T07:10:03.760Z,1025.05
2019-01-02T07:11:03.720Z,1025.07
2019-01-02T07:12:03.685Z,1025.10
2019-01-02T07:13:03.647Z,1025.13
2019-01-02T07:14:03.610Z,1025.13
2019-01-02T07:15:03.590Z,1025.13
2019-01-02T07:16:03.531Z,1025.16
2019-01-02T07:17:03.496Z,1025.14
2019-01-02T07:18:03.473Z,1025.23
2019-01-02T07:19:03.417Z,1025.23
2019-01-02T07:20:03.381Z,1025.27
2019-01-02T07:21:03.337Z,1025.23
2019-01-02T07:22:03.326Z,1025.29
2019-01-02T07:23:03.258Z,1025.32
2019-01-02T07:24:03.227Z,1025.29
2019-01-02T07:25:03.182Z,1025.29
2019-01-02T07:26:03.151Z,1025.27
2019-01-02T07:27:03.112Z,1025.28
2019-01-02T07:28:03.081Z,1025.33
2019-01-02T07:29:03.087Z,1025.25
2019-01-02T07:30:03.025Z,1025.24
2019-01-02T07:31:02.965Z,1025.26
2019-01-02T07:32:02.923Z,1025.33
2019-01-02T07:33:02.883Z,1025.34
2019-01-02T07:34:02.853Z,1025.38
2019-01-02T07:35:02.811Z,1025.40
2019-01-02T07:36:02.777Z,1025.42
2019-01-02T07:37:02.736Z,1025.46
2019-01-02T07:38:02.691Z,1025.42
2019-01-02T07:39:02.652Z,1025.47
2019-01-02T07:40:02.622Z,1025.47
2019-01-02T07:41:02.577Z,1025.50
2019-01-02T07:42:02.537Z,1025.53
2019-01-02T07:43:02.504Z,1025.53
2019-01-02T07:44:02.491Z,1025.57
2019-01-02T07:45:02.432Z,1025.52
2019-01-02T07:46:02.397Z,1025.54
2019-01-02T07:47:02.358Z,1025.51
2019-01-02T07:48:02.313Z,1025.52
2019-01-02T07:49:02.284Z,1025.59
2019-01-02T07:50:02.247Z,1025.64
2019-01-02T07:51:02.193Z,1025.64
2019-01-02T07:52:02.172Z,1025.57
2019-01-02T07:53:02.142Z,1025.68
2019-01-02T07:54:02.093Z,1025.69
2019-01-02T07:55:02.057Z,1025.69
2019-01-02T07:56:02.009Z,1025.65
2019-01-02T07:57:01.983Z,1025.63
2019-01-02T07:58:01.943Z,1025.69
2019-01-02T07:59:01.892Z,1025.65
2019-01-02T08:00:01.870Z,1025.67
2019-01-02T08:01:01.827Z,1025.64
2019-01-02T08:02:01.787Z,1025.62
2019-01-02T08:03:01.749Z,1025.60
2019-01-02T08:04:01.708Z,1025.62
2019-01-02T08:05:01.659Z,1025.66
2019-01-02T08:06:01.639Z,1025.64
2019-01-02T08:07:01.595Z,1025.67
2019-01-02T08:08:01.554Z,1025.62
2019-01-02T08:09:01.523Z,1025.61
2019-01-02T08:10:01.483Z,1025.69
2019-01-02T08:11:01.444Z,1025.64
2019-01-02T08:12:01.408Z,1025.68
2019-01-02T08:13:01.363Z,1025.71
2019-01-02T08:14:01.328Z,1025.72
2019-01-02T08:15:03.359Z,1025.76
2019-01-02T08:16:01.268Z,1025.72
2019-01-02T08:17:01.226Z,1025.76
2019-01-02T08:18:01.168Z,1025.78
2019-01-02T08:19:01.145Z,1025.75
2019-01-02T08:20:01.099Z,1025.83
2019-01-02T08:21:01.066Z,1025.80
2019-01-02T08:22:01.024Z,1025.84
2019-01-02T08:23:00.990Z,1025.83
2019-01-02T08:24:00.951Z,1025.84
2019-01-02T08:25:00.913Z,1025.81
2019-01-02T08:26:00.873Z,1025.88
2019-01-02T08:27:00.835Z,1025.86
2019-01-02T08:28:00.813Z,1025.88
2019-01-02T08:29:00.761Z,1025.84
2019-01-02T08:30:00.731Z,1025.90
2019-01-02T08:31:00.681Z,1025.87
2019-01-02T08:32:00.651Z,1025.88
2019-01-02T08:33:00.613Z,1025.89
2019-01-02T08:34:00.578Z,1025.93
2019-01-02T08:35:00.530Z,1025.91
2019-01-02T08:36:00.495Z,1025.90
2019-01-02T08:37:00.460Z,1026.00
2019-01-02T08:38:00.419Z,1026.04
2019-01-02T08:39:00.384Z,1026.00
2019-01-02T08:40:00.350Z,1025.97
2019-01-02T08:41:00.310Z,1025.98
2019-01-02T08:42:00.270Z,1025.98
2019-01-02T08:43:00.229Z,1025.89
2019-01-02T08:44:00.191Z,1025.87
2019-01-02T08:45:00.166Z,1025.89
2019-01-02T08:46:00.130Z,1025.91
2019-01-02T08:47:00.085Z,1025.87
2019-01-02T08:48:00.046Z,1025.92
2019-01-02T08:49:00.014Z,1025.90
2019-01-02T08:49:59.969Z,1025.95
2019-01-02T08:50:59.930Z,1025.96
2019-01-02T08:51:59.895Z,1025.96
2019-01-02T08:52:59.851Z,1025.95
2019-01-02T08:53:59.817Z,1025.95
2019-01-02T08:54:59.776Z,1025.89
2019-01-02T08:55:59.749Z,1025.92
2019-01-02T08:56:59.706Z,1025.94
2019-01-02T08:57:59.671Z,1025.98
2019-01-02T08:58:59.626Z,1025.98
2019-01-02T08:59:59.587Z,1025.99
2019-01-02T09:00:59.545Z,1025.95
2019-01-02T09:01:59.521Z,1026.07
2019-01-02T09:02:59.486Z,1026.06
2019-01-02T09:03:59.466Z,1026.08
2019-01-02T09:04:59.415Z,1026.10
2019-01-02T09:05:59.386Z,1026.15
2019-01-02T09:06:59.320Z,1026.14
2019-01-02T09:07:59.298Z,1026.06
2019-01-02T09:08:59.247Z,1026.08
2019-01-02T09:09:59.220Z,1026.14
2019-01-02T09:10:59.172Z,1026.19
2019-01-02T09:11:59.149Z,1026.16
2019-01-02T09:12:59.106Z,1026.21
2019-01-02T09:13:59.066Z,1026.20
2019-01-02T09:14:59.025Z,1026.28
2019-01-02T09:15:58.991Z,1026.27
2019-01-02T09:16:58.945Z,1026.19
2019-01-02T09:17:58.910Z,1026.18
2019-01-02T09:18:58.881Z,1026.21
2019-01-02T09:19:58.846Z,1026.25
2019-01-02T09:20:58.797Z,1026.24
2019-01-02T09:21:58.766Z,1026.32
2019-01-02T09:22:58.727Z,1026.33
2019-01-02T09:23:58.683Z,1026.27
2019-01-02T09:24:58.653Z,1026.33
2019-01-02T09:25:58.611Z,1026.41
2019-01-02T09:26:58.605Z,1026.38
2019-01-02T09:27:58.542Z,1026.31
2019-01-02T09:28:58.508Z,1026.37
2019-01-02T09:29:58.467Z,1026.36
2019-01-02T09:30:58.426Z,1026.43
2019-01-02T09:31:58.397Z,1026.42
2019-01-02T09:32:58.353Z,1026.47
2019-01-02T09:33:58.316Z,1026.52
2019-01-02T09:34:58.282Z,1026.51
2019-01-02T09:35:58.236Z,1026.51
2019-01-02T09:36:58.201Z,1026.51
2019-01-02T09:37:58.161Z,1026.54
2019-01-02T09:38:58.132Z,1026.59
2019-01-02T09:39:58.093Z,1026.61
2019-01-02T09:40:58.050Z,1026.64
2019-01-02T09:41:58.014Z,1026.64
2019-01-02T09:42:57.974Z,1026.65
2019-01-02T09:43:57.944Z,1026.69
2019-01-02T09:44:57.902Z,1026.70
2019-01-02T09:45:57.864Z,1026.63
2019-01-02T09:46:57.828Z,1026.57
2019-01-02T09:47:57.861Z,1026.58
2019-01-02T09:48:57.764Z,1026.60
2019-01-02T09:49:57.750Z,1026.54
2019-01-02T09:50:57.685Z,1026.58
2019-01-02T09:51:57.637Z,1026.62
2019-01-02T09:52:57.604Z,1026.62
2019-01-02T09:53:57.559Z,1026.57
2019-01-02T09:55:01.407Z,1026.62
2019-01-02T09:55:57.489Z,1026.64
2019-01-02T09:56:57.444Z,1026.66
2019-01-02T09:57:57.419Z,1026.61
2019-01-02T09:58:57.383Z,1026.63
2019-01-02T09:59:57.338Z,1026.53
2019-01-02T10:00:57.302Z,1026.52
2019-01-02T10:01:57.273Z,1026.47
2019-01-02T10:02:57.231Z,1026.51
2019-01-02T10:03:57.192Z,1026.51
2019-01-02T10:04:57.158Z,1026.45
2019-01-02T10:05:57.118Z,1026.45
2019-01-02T10:06:57.079Z,1026.44
2019-01-02T10:07:57.052Z,1026.40
2019-01-02T10:08:57.004Z,1026.36
2019-01-02T10:09:56.979Z,1026.35
2019-01-02T10:10:56.938Z,1026.43
2019-01-02T10:11:56.903Z,1026.46
2019-01-02T10:12:56.854Z,1026.51
2019-01-02T10:13:56.818Z,1026.50
2019-01-02T10:14:56.784Z,1026.47
2019-01-02T10:15:56.745Z,1026.45
2019-01-02T10:16:56.715Z,1026.55
2019-01-02T10:17:56.750Z,1026.55
2019-01-02T10:18:56.866Z,1026.59
2019-01-02T10:19:56.742Z,1026.54
2019-01-02T10:20:56.561Z,1026.58
2019-01-02T10:21:56.515Z,1026.50
2019-01-02T10:22:56.485Z,1026.68
2019-01-02T10:23:56.453Z,1026.63
2019-01-02T10:24:56.419Z,1026.63
2019-01-02T10:25:56.384Z,1026.71
2019-01-02T10:26:56.335Z,1026.59
2019-01-02T10:27:56.310Z,1026.60
2019-01-02T10:28:56.261Z,1026.62
2019-01-02T10:29:56.230Z,1026.60
2019-01-02T10:30:56.184Z,1026.64
2019-01-02T10:31:56.149Z,1026.62
2019-01-02T10:32:56.110Z,1026.59
2019-01-02T10:33:56.087Z,1026.59
2019-01-02T10:34:56.041Z,1026.43
2019-01-02T10:35:55.995Z,1026.53
2019-01-02T10:36:55.957Z,1026.47
2019-01-02T10:37:55.932Z,1026.45
2019-01-02T10:38:55.920Z,1026.46
2019-01-02T10:39:55.852Z,1026.46
2019-01-02T10:40:55.815Z,1026.42
2019-01-02T10:41:55.774Z,1026.42
2019-01-02T10:42:55.750Z,1026.41
2019-01-02T10:43:55.702Z,1026.42
2019-01-02T10:44:55.664Z,1026.41
2019-01-02T10:45:55.627Z,1026.52
2019-01-02T10:46:55.584Z,1026.51
2019-01-02T10:47:55.551Z,1026.48
2019-01-02T10:48:55.516Z,1026.46
2019-01-02T10:49:55.478Z,1026.50
2019-01-02T10:50:55.440Z,1026.46
2019-01-02T10:51:55.407Z,1026.46
2019-01-02T10:52:55.368Z,1026.50
2019-01-02T10:53:55.338Z,1026.48
2019-01-02T10:54:55.346Z,1026.52
2019-01-02T10:55:55.327Z,1026.56
2019-01-02T10:56:55.220Z,1026.58
2019-01-02T10:57:55.187Z,1026.56
2019-01-02T10:58:55.145Z,1026.81
2019-01-02T10:59:55.107Z,1026.66
2019-01-02T11:00:55.071Z,1026.88
2019-01-02T11:01:55.048Z,1026.87
2019-01-02T11:02:55.006Z,1026.90
2019-01-02T11:03:54.994Z,1026.84
2019-01-02T11:04:54.926Z,1026.83
2019-01-02T11:05:54.897Z,1026.67
2019-01-02T11:06:54.857Z,1026.78
2019-01-02T11:07:54.818Z,1026.78
2019-01-02T11:08:54.803Z,1026.80
2019-01-02T11:09:54.753Z,1026.72
2019-01-02T11:10:54.722Z,1026.84
2019-01-02T11:11:54.693Z,1026.77
2019-01-02T11:12:54.661Z,1026.72
2019-01-02T11:13:54.618Z,1026.78
2019-01-02T11:14:54.571Z,1026.79
2019-01-02T11:15:54.548Z,1026.84
2019-01-02T11:16:54.522Z,1026.90
2019-01-02T11:17:54.488Z,1026.91
2019-01-02T11:18:54.458Z,1026.91
2019-01-02T11:19:54.428Z,1026.82
2019-01-02T11:20:54.387Z,1026.87
2019-01-02T11:21:54.354Z,1026.68
2019-01-02T11:22:54.324Z,1026.65
2019-01-02T11:23:54.317Z,1026.67
2019-01-02T11:24:54.275Z,1026.77
2019-01-02T11:25:54.229Z,1026.78
2019-01-02T11:26:54.209Z,1026.81
2019-01-02T11:27:54.180Z,1026.77
2019-01-02T11:28:54.128Z,1026.82
2019-01-02T11:29:54.096Z,1026.63
2019-01-02T11:30:54.069Z,1026.78
2019-01-02T11:31:54.042Z,1026.74
2019-01-02T11:32:54.002Z,1026.74
2019-01-02T11:33:53.967Z,1026.64
2019-01-02T11:34:53.979Z,1026.73
2019-01-02T11:35:53.902Z,1026.62
2019-01-02T11:36:53.878Z,1026.89
2019-01-02T11:37:53.838Z,1026.68
2019-01-02T11:38:53.813Z,1026.57
2019-01-02T11:39:53.800Z,1026.41
2019-01-02T11:40:53.740Z,1026.43
2019-01-02T11:41:53.710Z,1026.42
2019-01-02T11:42:53.695Z,1026.51
2019-01-02T11:43:53.764Z,1026.48
2019-01-02T11:44:53.619Z,1026.47
2019-01-02T11:45:53.575Z,1026.44
2019-01-02T11:46:53.538Z,1026.45
2019-01-02T11:47:53.514Z,1026.41
2019-01-02T11:48:53.475Z,1026.41
2019-01-02T11:49:53.442Z,1026.46
2019-01-02T11:50:53.404Z,1026.45
2019-01-02T11:51:53.385Z,1026.45
2019-01-02T11:52:53.412Z,1026.40
2019-01-02T11:53:53.303Z,1026.40
2019-01-02T11:54:53.270Z,1026.37
2019-01-02T11:55:53.231Z,1026.41
2019-01-02T11:56:53.193Z,1026.42
2019-01-02T11:57:53.161Z,1026.40
2019-01-02T11:58:53.128Z,1026.43
2019-01-02T11:59:53.094Z,1026.39
2019-01-02T12:00:53.060Z,1026.50
2019-01-02T12:01:53.011Z,1026.47
2019-01-02T12:02:52.992Z,1026.46
2019-01-02T12:03:52.940Z,1026.42
2019-01-02T12:04:52.905Z,1026.40